createdAt,value
2022-08-23T00:02:03.142Z,25.4
2022-08-23T00:08:11.177Z,25.4
2022-08-23T00:13:47.367Z,25.4
2022-08-23T00:19:37.190Z,25.4
2022-08-23T00:25:13.950Z,25.4
2022-08-23T00:30:58.581Z,25.4
2022-08-23T00:36:35.012Z,25.4
2022-08-23T00:42:39.809Z,25.4
2022-08-23T00:48:01.899Z,25.3
2022-08-23T00:53:49.075Z,25.3
2022-08-23T00:59:10.027Z,25.3
2022-08-23T01:04:53.772Z,25.3
2022-08-23T01:10:18.172Z,25.3
2022-08-23T01:15:50.992Z,25.2
2022-08-23T01:21:18.576Z,25.2
2022-08-23T01:27:53.067Z,25.2
2022-08-23T01:33:30.020Z,25.2
2022-08-23T01:39:19.272Z,25.2
2022-08-23T01:45:00.146Z,25.1
2022-08-23T01:56:07.433Z,25.1
2022-08-23T02:01:44.317Z,25.1
2022-08-23T02:07:24.672Z,25
2022-08-23T02:13:10.105Z,25
2022-08-23T02:19:02.017Z,25.1
2022-08-23T02:24:38.684Z,25.1
2022-08-23T02:30:21.168Z,25.1
2022-08-23T02:36:10.692Z,25
2022-08-23T02:41:50.414Z,25
2022-08-23T02:47:15.931Z,25
2022-08-23T02:52:21.422Z,25.1
2022-08-23T02:58:04.529Z,25.1
2022-08-23T03:03:45.471Z,25.1
2022-08-23T03:09:43.966Z,25
2022-08-23T03:15:22.275Z,25
2022-08-23T03:20:58.653Z,25
2022-08-23T03:26:26.511Z,24.9
2022-08-23T03:32:18.491Z,24.9
2022-08-23T03:38:14.512Z,24.8
2022-08-23T03:43:54.043Z,24.8
2022-08-23T03:49:38.250Z,24.7
2022-08-23T03:55:18.865Z,24.6
2022-08-23T04:00:56.869Z,24.5
2022-08-23T04:06:33.621Z,24.4
2022-08-23T04:12:33.980Z,24.4
2022-08-23T04:18:13.830Z,24.4
2022-08-23T04:23:53.501Z,24.4
2022-08-23T04:30:08.344Z,24.4
2022-08-23T04:36:16.114Z,24.5
2022-08-23T04:42:05.413Z,24.5
2022-08-23T04:47:43.214Z,24.6
2022-08-23T04:53:24.722Z,24.6
2022-08-23T04:59:05.634Z,24.6
2022-08-23T05:04:44.844Z,24.6
2022-08-23T05:10:30.930Z,24.6
2022-08-23T05:16:13.469Z,24.6
2022-08-23T05:21:57.703Z,24.6
2022-08-23T05:27:49.902Z,24.7
2022-08-23T05:33:45.703Z,24.7
2022-08-23T05:39:32.905Z,24.8
2022-08-23T05:45:37.540Z,24.7
2022-08-23T05:51:32.718Z,24.8
2022-08-23T05:57:18.226Z,24.8
2022-08-23T06:03:07.883Z,24.8
2022-08-23T06:08:52.606Z,24.8
2022-08-23T06:14:35.079Z,24.8
2022-08-23T06:20:24.006Z,24.8
2022-08-23T06:25:44.533Z,24.9
2022-08-23T06:31:43.864Z,24.9
2022-08-23T06:37:54.107Z,24.9
2022-08-23T06:44:01.252Z,24.9
2022-08-23T06:50:11.912Z,24.9
2022-08-23T06:56:03.098Z,24.9
2022-08-23T07:02:15.413Z,24.9
2022-08-23T07:08:17.100Z,24.9
2022-08-23T07:13:58.631Z,25
2022-08-23T07:19:45.841Z,25
2022-08-23T07:25:26.672Z,25
2022-08-23T07:31:03.523Z,25
2022-08-23T07:36:52.505Z,25.1
2022-08-23T07:42:55.974Z,25.1
2022-08-23T07:48:43.511Z,25.1
2022-08-23T07:54:48.741Z,25.1
2022-08-23T08:00:28.488Z,25.1
2022-08-23T08:06:11.095Z,25.1
2022-08-23T08:12:12.342Z,25.1
2022-08-23T08:17:49.434Z,25.1
2022-08-23T08:23:16.879Z,25.1
2022-08-23T08:28:31.721Z,25.2
2022-08-23T08:33:57.243Z,25.2
2022-08-23T08:39:50.425Z,25.1
2022-08-23T08:45:24.333Z,25.2
2022-08-23T08:51:16.717Z,25.2
2022-08-23T08:57:06.909Z,25.2
2022-08-23T09:03:05.034Z,25.2
2022-08-23T09:08:51.616Z,25.2
2022-08-23T09:14:35.360Z,25.2
2022-08-23T09:20:14.776Z,25.2
2022-08-23T09:26:03.207Z,25.2
2022-08-23T09:31:42.777Z,25.3
2022-08-23T09:37:26.410Z,25.3
2022-08-23T09:42:56.112Z,25.3
2022-08-23T09:48:30.704Z,25.3
2022-08-23T09:54:17.826Z,25.3
2022-08-23T10:00:00.490Z,25.3
2022-08-23T10:05:47.497Z,25.3
2022-08-23T10:11:21.169Z,25.3
2022-08-23T10:17:01.383Z,25.3
2022-08-23T10:22:27.428Z,25.3
2022-08-23T10:28:07.358Z,25.3
2022-08-23T10:33:35.159Z,25.3
2022-08-23T10:39:04.593Z,25.3
2022-08-23T10:44:46.473Z,25.3
2022-08-23T10:50:25.834Z,25.4
2022-08-23T10:56:18.214Z,25.3
2022-08-23T11:02:07.985Z,25.4
2022-08-23T11:07:46.339Z,25.4
2022-08-23T11:13:45.851Z,25.4
2022-08-23T11:19:23.126Z,25.4
2022-08-23T11:25:00.474Z,25.4
2022-08-23T11:30:46.117Z,25.4
2022-08-23T11:36:32.655Z,25.4
2022-08-23T11:42:00.312Z,25.4
2022-08-23T11:47:37.843Z,25.4
2022-08-23T11:53:16.904Z,25.4
2022-08-23T11:58:59.745Z,25.5
2022-08-23T12:04:30.781Z,25.5
2022-08-23T12:09:59.871Z,25.5
2022-08-23T12:15:42.566Z,25.5
2022-08-23T12:21:40.987Z,25.5
2022-08-23T12:27:26.586Z,25.5
2022-08-23T12:33:13.360Z,25.6
2022-08-23T12:38:49.626Z,25.6
2022-08-23T12:44:22.776Z,25.6
2022-08-23T12:49:46.495Z,25.6
2022-08-23T12:55:34.556Z,25.6
2022-08-23T13:01:42.884Z,25.6
2022-08-23T13:07:27.890Z,25.6
2022-08-23T13:13:06.989Z,25.6
2022-08-23T13:18:15.393Z,25.6
2022-08-23T13:23:37.357Z,25.6
2022-08-23T13:29:34.588Z,25.6
2022-08-23T13:35:24.666Z,25.6
2022-08-23T13:41:13.621Z,25.6
2022-08-23T13:47:08.839Z,25.6
2022-08-23T13:53:53.410Z,25.6
2022-08-23T13:59:34.966Z,25.6
2022-08-23T14:05:22.573Z,25.6
2022-08-23T14:11:01.391Z,25.6
2022-08-23T14:17:37.031Z,25.5
2022-08-23T14:24:51.736Z,25.6
2022-08-23T14:30:38.531Z,25.6
2022-08-23T14:36:16.807Z,25.6
2022-08-23T14:42:58.018Z,25.5
2022-08-23T14:48:41.235Z,25.6
2022-08-23T14:54:21.111Z,25.5
2022-08-23T15:00:16.304Z,25.5
2022-08-23T15:05:42.417Z,25.5
2022-08-23T15:13:55.181Z,25.6
2022-08-23T15:19:34.718Z,25.5
2022-08-23T15:25:32.086Z,25.5
2022-08-23T15:31:22.422Z,25.5
2022-08-23T15:37:22.121Z,25.5
2022-08-23T15:42:53.665Z,25.5
2022-08-23T15:48:21.745Z,25.5
2022-08-23T15:53:49.617Z,25.5
2022-08-23T15:59:30.486Z,25.5
2022-08-23T16:05:42.118Z,25.5
2022-08-23T16:11:21.136Z,25.5
2022-08-23T16:16:59.939Z,25.5
2022-08-23T16:22:40.897Z,25.4
2022-08-23T16:28:30.976Z,25.4
2022-08-23T16:34:24.363Z,25.4
2022-08-23T16:40:08.783Z,25.3
2022-08-23T16:45:45.757Z,25.3
2022-08-23T16:51:23.505Z,25.3
2022-08-23T16:57:22.244Z,25.3
2022-08-23T17:03:01.493Z,25.3
2022-08-23T17:08:46.334Z,25.3
2022-08-23T17:14:29.581Z,25.3
2022-08-23T17:20:07.455Z,25.3
2022-08-23T17:25:47.058Z,25.2
2022-08-23T17:31:36.413Z,25.2
2022-08-23T17:37:18.113Z,25.2
2022-08-23T17:42:50.915Z,25.2
2022-08-23T17:48:13.837Z,25.1
2022-08-23T17:53:53.909Z,25.1
2022-08-23T17:59:46.033Z,25.1
2022-08-23T18:05:25.071Z,25.1
2022-08-23T18:11:20.092Z,25.1
2022-08-23T18:17:00.581Z,25.1
2022-08-23T18:22:40.271Z,25.1
2022-08-23T18:28:27.317Z,25.2
2022-08-23T18:34:19.322Z,25.1
2022-08-23T18:40:07.805Z,25.1
2022-08-23T18:45:52.005Z,25.1
2022-08-23T18:51:49.046Z,25.2
2022-08-23T18:57:33.899Z,25.2
2022-08-23T19:03:12.853Z,25.3
2022-08-23T19:09:01.155Z,25.3
2022-08-23T19:14:19.409Z,25.3
2022-08-23T19:19:57.511Z,25.3
2022-08-23T19:25:19.485Z,25.3
2022-08-23T19:30:45.053Z,25.3
2022-08-23T19:37:00.559Z,25.3
2022-08-23T19:42:44.805Z,25.3
2022-08-23T19:48:17.377Z,25.3
2022-08-23T19:54:01.196Z,25.3
2022-08-23T19:59:48.205Z,25.3
2022-08-23T20:04:55.568Z,25.3
2022-08-23T20:10:19.717Z,25.3
2022-08-23T20:15:56.521Z,25.3
2022-08-23T20:21:19.292Z,25.3
2022-08-23T20:27:23.952Z,25.3
2022-08-23T20:33:10.165Z,25.3
2022-08-23T20:38:22.321Z,25.3
2022-08-23T20:44:07.007Z,25.3
2022-08-23T20:49:23.805Z,25.3
2022-08-23T20:54:48.577Z,25.3
2022-08-23T21:00:18.085Z,25.3
2022-08-23T21:05:59.356Z,25.3
2022-08-23T21:11:50.604Z,25.3
2022-08-23T21:17:25.227Z,25.3
2022-08-23T21:23:05.345Z,25.3
2022-08-23T21:28:37.233Z,25.3
2022-08-23T21:34:14.311Z,25.3
2022-08-23T21:39:51.887Z,25.3
2022-08-23T21:45:19.480Z,25.3
2022-08-23T21:50:45.183Z,25.3
2022-08-23T21:56:43.469Z,25.3
2022-08-23T22:02:20.864Z,25.3
2022-08-23T22:08:06.868Z,25.3
2022-08-23T22:14:05.040Z,25.3
2022-08-23T22:19:31.808Z,25.3
2022-08-23T22:24:59.388Z,25.3
2022-08-23T22:30:20.937Z,25.3
2022-08-23T22:35:27.268Z,25.3
2022-08-23T22:41:22.452Z,25.3
2022-08-23T22:47:08.824Z,25.3
2022-08-23T22:52:49.577Z,25.3
2022-08-23T22:58:27.514Z,25.3
2022-08-23T23:04:38.749Z,25.3
2022-08-23T23:10:15.709Z,25.3
2022-08-23T23:15:38.299Z,25.3
2022-08-23T23:21:00.433Z,25.3
2022-08-23T23:26:40.461Z,25.3
2022-08-23T23:32:18.406Z,25.3
2022-08-23T23:38:06.061Z,25.3
2022-08-23T23:43:45.809Z,25.3
2022-08-23T23:49:20.696Z,25.3
2022-08-23T23:54:58.356Z,25.3
